Airfield :
LOGIN :

Register | Disclaimer

   EN    FR    IT 

 










Legend :    VFR   Marginal VFR   IFR   Intensive IFR   Very Intensive IFR
Visi :
Ceiling :
>= 8 km
>= 3000ft
5 to 8 km
1000 to 3000 ft
1500m to 5 km
500 to 1000 ft
800 to 1500m
200 to 500 ft
< 800m
< 200 ft
Symbols :   Thunderstorms  Fog  Heavy snow  Heavy precipitations  Wind > 20 kt
SIGMETs :     Misc.  Thunderstorms  Icing  Turbulence  Mountain Waves  Volcanic Ashes







- Airport Elevation : 194 ft


EBCV - Chièvres

CURRENT METAR :
  • 261225Z AUTO 08010KT 9999 NCD 14/03 Q1023 BLU

EXPIRED METARs :
  • 261155Z AUTO 07011KT 9999 NCD 13/03 Q1023 BLU
  • 261125Z AUTO 08009KT 9999 NCD 13/04 Q1023 BLU
  • 261055Z AUTO 06010KT 9999 NCD 13/03 Q1023 BLU
  • 261025Z AUTO 07011KT 9999 NCD 12/03 Q1023 BLU
  • 260955Z AUTO 09010KT 9999 NCD 12/02 Q1023 BLU

TAF TAF EBCV
Valid from the 26 at 13:00 until the 26 at 22:00 UTC


261141Z 2613/2622 06008KT 9999 BKN200 BY EBWM
No reported NOTAMs for that airfield.



MET'MAP, your aeronautical weather chart ! - Copyright ORBIFLY December 2007 - Disclaimer

ORBIFLY MET'MAP TEAM :

Programming & Development : Alexandra Zaïnal
Concept & Development : Baudouin d'Aumeries
Co-Development & Prog : Marc-Olivier Méhu
Technical & hardware support : Manuel Goepfert

Contact : metmap@orbifly.com




SOURCES & CREDITS :

   NOAA